Accueil
METAR-TAF:

METAR-TAF

Aéroports :

Kotzebue, Alaska, États-Unis

latitude: 66-53-04N, longitude: 162-35-54W, altitude: 3 m

Observation

Le bulletin a été fait il y a 1 heure et 4 minutes, à 06:53 UTC
Vent 5 kt de est
Température -26°C
Humidité 76%
Pression 1015 hPa
Visibilité: 16.1 km
Ciel clair

METAR: PAOT 060653Z 08005KT 10SM CLR M26/M29 A2997 RMK AO2 SLP147 T12611289 $

Heure: 22:57 (07:57 UTC)

Prévision

Le bulletin a été fait il y a 2 heures et 27 minutes, à 05:30 UTC
Prévision valable du 06 à 06 UTC au 07 à 06 UTC
Vent 5 kt de nord-est
Visibilité: 10 km
Ciel clair

TAF: PAOT 060530Z 0606/0706 04005KT P6SM SKC

Observations et prévisions météorologiques de plus de 4000 aéroports (messages METAR et TAF).

Les stations disponibles sont représentées par des disques jaunes et rouges sur la carte.

Passer la souris dessus pour voir le nom de la station.

Cliquer dessus pour voir les observations et prévisions météorologiques.

Pour changer de carte: cliquez sur les boutons verts avec une croix noire pour zoomer, sur le bouton vert avec un tiret pour effectuer un zoom arrière, ou sur les flèches vertes pour les cartes adjacentes.


METAR-TAF: